createdAt,value
2022-08-24T00:00:06.345Z,451
2022-08-24T00:00:16.361Z,452
2022-08-24T00:00:26.370Z,451
2022-08-24T00:00:36.385Z,452
2022-08-24T00:00:46.400Z,450
2022-08-24T00:00:56.409Z,449
2022-08-24T00:01:06.424Z,449
2022-08-24T00:01:16.433Z,451
2022-08-24T00:01:26.453Z,449
2022-08-24T00:01:36.455Z,444
2022-08-24T00:01:46.624Z,440
2022-08-24T00:01:56.656Z,446
2022-08-24T00:02:06.663Z,446
2022-08-24T00:02:16.614Z,447
2022-08-24T00:02:26.671Z,441
2022-08-24T00:02:36.702Z,443
2022-08-24T00:02:46.756Z,441
2022-08-24T00:02:56.744Z,441
2022-08-24T00:03:06.667Z,443
2022-08-24T00:03:16.718Z,445
2022-08-24T00:03:26.747Z,446
2022-08-24T00:03:36.634Z,447
2022-08-24T00:03:46.610Z,448
2022-08-24T00:03:57.333Z,447
2022-08-24T00:04:06.640Z,446
2022-08-24T00:04:17.296Z,445
2022-08-24T00:04:26.662Z,443
2022-08-24T00:04:36.674Z,443
2022-08-24T00:04:48.661Z,444
2022-08-24T00:04:56.696Z,444
2022-08-24T00:05:06.706Z,442
2022-08-24T00:05:16.723Z,444
2022-08-24T00:05:26.735Z,445
2022-08-24T00:05:36.742Z,445
2022-08-24T00:05:46.762Z,446
2022-08-24T00:05:56.769Z,446
2022-08-24T00:06:06.786Z,446
2022-08-24T00:06:16.855Z,445
2022-08-24T00:06:26.812Z,446
2022-08-24T00:06:36.817Z,446
2022-08-24T00:06:46.830Z,446
2022-08-24T00:06:56.847Z,445
2022-08-24T00:07:12.997Z,446
2022-08-24T00:07:27.165Z,445
2022-08-24T00:07:27.905Z,444
2022-08-24T00:07:36.912Z,444
2022-08-24T00:07:46.909Z,445
2022-08-24T00:07:57.068Z,447
2022-08-24T00:08:07.037Z,446
2022-08-24T00:08:16.947Z,447
2022-08-24T00:08:26.961Z,447
2022-08-24T00:08:36.973Z,446
2022-08-24T00:08:46.991Z,446
2022-08-24T00:08:57.002Z,446
2022-08-24T00:09:07.014Z,446
2022-08-24T00:09:17.046Z,444
2022-08-24T00:09:27.036Z,443
2022-08-24T00:09:37.048Z,442
2022-08-24T00:09:49.526Z,443
2022-08-24T00:09:57.069Z,444
2022-08-24T00:10:07.085Z,443
2022-08-24T00:10:17.098Z,445
2022-08-24T00:10:27.108Z,443
2022-08-24T00:10:37.121Z,446
2022-08-24T00:10:47.132Z,446
2022-08-24T00:10:57.145Z,445
2022-08-24T00:11:07.152Z,446
2022-08-24T00:11:17.169Z,446
2022-08-24T00:11:27.182Z,446
2022-08-24T00:11:37.200Z,446
2022-08-24T00:11:47.213Z,445
2022-08-24T00:11:57.221Z,445
2022-08-24T00:12:07.235Z,445
2022-08-24T00:12:17.246Z,445
2022-08-24T00:12:27.258Z,445
2022-08-24T00:12:37.271Z,443
2022-08-24T00:12:47.278Z,444
2022-08-24T00:12:57.295Z,445
2022-08-24T00:13:07.305Z,443
2022-08-24T00:13:17.326Z,443
2022-08-24T00:13:29.386Z,444
2022-08-24T00:13:39.244Z,446
2022-08-24T00:13:47.430Z,447
2022-08-24T00:13:57.372Z,447
2022-08-24T00:14:07.371Z,448
2022-08-24T00:14:17.402Z,448
2022-08-24T00:14:27.398Z,447
2022-08-24T00:14:37.408Z,446
2022-08-24T00:14:47.420Z,446
2022-08-24T00:14:57.438Z,446
2022-08-24T00:15:07.444Z,446
2022-08-24T00:15:17.454Z,446
2022-08-24T00:15:27.472Z,446
2022-08-24T00:15:37.489Z,446
2022-08-24T00:15:47.504Z,445
2022-08-24T00:15:57.509Z,444
2022-08-24T00:16:07.596Z,445
2022-08-24T00:16:17.551Z,445
2022-08-24T00:16:27.626Z,446
2022-08-24T00:16:37.568Z,447
2022-08-24T00:16:47.665Z,447
2022-08-24T00:16:57.789Z,449
2022-08-24T00:17:07.648Z,449
2022-08-24T00:17:17.659Z,447
2022-08-24T00:17:27.619Z,447
2022-08-24T00:17:37.629Z,447
2022-08-24T00:17:47.639Z,446
2022-08-24T00:17:57.650Z,446
2022-08-24T00:18:07.723Z,444
2022-08-24T00:18:17.679Z,444
2022-08-24T00:18:27.702Z,443
2022-08-24T00:18:37.705Z,443
2022-08-24T00:18:47.715Z,444
2022-08-24T00:18:57.729Z,443
2022-08-24T00:19:07.744Z,446
2022-08-24T00:19:17.779Z,444
2022-08-24T00:19:27.774Z,443
2022-08-24T00:19:37.776Z,444
2022-08-24T00:19:47.788Z,443
2022-08-24T00:19:57.807Z,445
2022-08-24T00:20:07.818Z,447
2022-08-24T00:20:17.832Z,446
2022-08-24T00:20:27.848Z,449
2022-08-24T00:20:40.929Z,449
2022-08-24T00:20:47.858Z,451
2022-08-24T00:20:57.877Z,452
2022-08-24T00:21:07.889Z,451
2022-08-24T00:21:17.978Z,451
2022-08-24T00:21:27.912Z,455
2022-08-24T00:21:37.917Z,450
2022-08-24T00:21:47.940Z,450
2022-08-24T00:21:57.944Z,452
2022-08-24T00:22:07.954Z,454
2022-08-24T00:22:17.971Z,456
2022-08-24T00:22:27.994Z,456
2022-08-24T00:22:37.996Z,459
2022-08-24T00:22:48.037Z,458
2022-08-24T00:22:58.021Z,456
2022-08-24T00:23:08.031Z,456
2022-08-24T00:23:18.049Z,455
2022-08-24T00:23:28.055Z,455
2022-08-24T00:23:38.065Z,455
2022-08-24T00:23:48.077Z,455
2022-08-24T00:23:58.082Z,455
2022-08-24T00:24:08.105Z,454
2022-08-24T00:24:18.204Z,453
2022-08-24T00:24:28.120Z,452
2022-08-24T00:24:38.137Z,452
2022-08-24T00:24:48.155Z,451
2022-08-24T00:24:58.168Z,449
2022-08-24T00:25:08.171Z,449
2022-08-24T00:25:18.211Z,449
2022-08-24T00:25:28.199Z,449
2022-08-24T00:25:38.208Z,449
2022-08-24T00:25:48.254Z,448
2022-08-24T00:25:58.229Z,448
2022-08-24T00:26:08.259Z,448
2022-08-24T00:26:19.284Z,449
2022-08-24T00:26:29.071Z,449
2022-08-24T00:26:38.279Z,449
2022-08-24T00:26:48.309Z,448
2022-08-24T00:26:58.307Z,447
2022-08-24T00:27:08.321Z,448
2022-08-24T00:27:18.332Z,448
2022-08-24T00:27:28.346Z,449
2022-08-24T00:27:38.365Z,448
2022-08-24T00:27:48.385Z,447
2022-08-24T00:27:58.523Z,448
2022-08-24T00:28:08.399Z,447
2022-08-24T00:28:18.409Z,446
2022-08-24T00:28:28.419Z,447
2022-08-24T00:28:38.431Z,448
2022-08-24T00:28:48.452Z,448
2022-08-24T00:28:58.457Z,448
2022-08-24T00:29:08.482Z,448
2022-08-24T00:29:18.492Z,448
2022-08-24T00:29:28.497Z,448
2022-08-24T00:29:38.507Z,448
2022-08-24T00:29:48.523Z,448
2022-08-24T00:29:58.536Z,448
2022-08-24T00:30:08.544Z,448
2022-08-24T00:30:18.570Z,446
2022-08-24T00:30:28.574Z,448
2022-08-24T00:30:38.642Z,447
2022-08-24T00:30:48.603Z,447
2022-08-24T00:30:58.607Z,447
2022-08-24T00:31:08.613Z,447
2022-08-24T00:31:18.666Z,448
2022-08-24T00:31:28.690Z,449
2022-08-24T00:31:38.761Z,450
2022-08-24T00:31:48.786Z,449
2022-08-24T00:31:58.741Z,450
2022-08-24T00:32:08.764Z,451
2022-08-24T00:32:18.771Z,453
2022-08-24T00:32:28.736Z,451
2022-08-24T00:32:38.745Z,450
2022-08-24T00:32:48.759Z,450
2022-08-24T00:32:58.767Z,453
2022-08-24T00:33:08.848Z,452
2022-08-24T00:33:18.796Z,452
2022-08-24T00:33:28.811Z,451
2022-08-24T00:33:38.819Z,451
2022-08-24T00:33:48.830Z,450
2022-08-24T00:33:58.844Z,449
2022-08-24T00:34:08.856Z,450
2022-08-24T00:34:18.891Z,451
2022-08-24T00:34:28.889Z,452
2022-08-24T00:34:38.903Z,451
2022-08-24T00:34:58.674Z,451
2022-08-24T00:34:59.488Z,451
2022-08-24T00:35:08.933Z,453
2022-08-24T00:35:18.942Z,453
2022-08-24T00:35:28.954Z,452
2022-08-24T00:35:38.987Z,452
2022-08-24T00:35:48.983Z,453
2022-08-24T00:35:59.001Z,454
2022-08-24T00:36:09.012Z,456
2022-08-24T00:36:19.021Z,455
2022-08-24T00:36:29.034Z,456
2022-08-24T00:36:39.057Z,456
2022-08-24T00:36:49.058Z,455
2022-08-24T00:36:59.091Z,456
2022-08-24T00:37:09.083Z,456
2022-08-24T00:37:19.205Z,456
2022-08-24T00:37:29.133Z,457
2022-08-24T00:37:39.121Z,455
2022-08-24T00:37:49.134Z,454
2022-08-24T00:37:59.194Z,452
2022-08-24T00:38:09.153Z,451
2022-08-24T00:38:19.162Z,451
2022-08-24T00:38:29.761Z,452
2022-08-24T00:38:39.188Z,450
2022-08-24T00:38:49.206Z,449
2022-08-24T00:38:59.217Z,450
2022-08-24T00:39:09.225Z,450
2022-08-24T00:39:19.277Z,451
2022-08-24T00:39:29.251Z,450
2022-08-24T00:39:39.265Z,449
2022-08-24T00:39:49.357Z,448
2022-08-24T00:39:59.369Z,449
2022-08-24T00:40:09.454Z,449
2022-08-24T00:40:19.414Z,451
2022-08-24T00:40:29.404Z,453
2022-08-24T00:40:39.335Z,453
2022-08-24T00:40:49.365Z,450
2022-08-24T00:40:59.371Z,450
2022-08-24T00:41:19.440Z,450
2022-08-24T00:41:29.583Z,450
2022-08-24T00:41:39.449Z,452
2022-08-24T00:41:49.429Z,453
2022-08-24T00:41:59.440Z,455
2022-08-24T00:42:09.460Z,456
2022-08-24T00:42:19.484Z,457
2022-08-24T00:42:29.479Z,457
2022-08-24T00:42:39.491Z,456
2022-08-24T00:42:49.507Z,455
2022-08-24T00:42:59.514Z,454
2022-08-24T00:43:09.536Z,454
2022-08-24T00:43:19.545Z,453
2022-08-24T00:43:29.555Z,452
2022-08-24T00:43:39.571Z,452
2022-08-24T00:43:49.585Z,452
2022-08-24T00:43:59.589Z,451
2022-08-24T00:44:09.633Z,452
2022-08-24T00:44:19.642Z,451
2022-08-24T00:44:29.631Z,452
2022-08-24T00:44:39.656Z,451
2022-08-24T00:44:49.659Z,452
2022-08-24T00:44:59.682Z,452
2022-08-24T00:45:09.685Z,452
2022-08-24T00:45:19.777Z,451
2022-08-24T00:45:29.758Z,450
2022-08-24T00:45:39.812Z,450
2022-08-24T00:45:49.767Z,451
2022-08-24T00:45:59.789Z,452
2022-08-24T00:46:09.797Z,450
2022-08-24T00:46:19.779Z,450
2022-08-24T00:46:29.780Z,450
2022-08-24T00:46:39.789Z,451
2022-08-24T00:46:49.821Z,451
2022-08-24T00:46:59.850Z,451
2022-08-24T00:47:09.832Z,451
2022-08-24T00:47:19.849Z,451
2022-08-24T00:47:29.850Z,451
2022-08-24T00:47:39.861Z,451
2022-08-24T00:47:49.877Z,451
2022-08-24T00:47:59.945Z,452
2022-08-24T00:48:09.906Z,453
2022-08-24T00:48:19.919Z,454
2022-08-24T00:48:29.929Z,453
2022-08-24T00:48:39.942Z,455
2022-08-24T00:48:49.950Z,455
2022-08-24T00:48:59.986Z,455
2022-08-24T00:49:09.978Z,455
2022-08-24T00:49:20.010Z,455
2022-08-24T00:49:30.018Z,456
2022-08-24T00:49:40.032Z,457
2022-08-24T00:49:50.036Z,458
2022-08-24T00:50:00.040Z,458
2022-08-24T00:50:10.058Z,459
2022-08-24T00:50:20.095Z,458
2022-08-24T00:50:30.085Z,457
2022-08-24T00:50:40.089Z,458
2022-08-24T00:50:50.107Z,459
2022-08-24T00:51:00.125Z,459
2022-08-24T00:51:10.130Z,459
2022-08-24T00:51:20.148Z,460
2022-08-24T00:51:30.155Z,459
2022-08-24T00:51:40.191Z,458
2022-08-24T00:51:50.180Z,458
2022-08-24T00:52:00.191Z,458
2022-08-24T00:52:10.196Z,458
2022-08-24T00:52:20.207Z,459
2022-08-24T00:52:30.229Z,459
2022-08-24T00:52:40.259Z,459
2022-08-24T00:52:50.250Z,459
2022-08-24T00:53:00.258Z,459
2022-08-24T00:53:10.280Z,458
2022-08-24T00:53:20.288Z,461
2022-08-24T00:53:30.306Z,459
2022-08-24T00:53:40.314Z,458
2022-08-24T00:53:50.322Z,459
2022-08-24T00:54:00.345Z,459
2022-08-24T00:54:10.355Z,457
2022-08-24T00:54:20.446Z,456
2022-08-24T00:54:30.382Z,456
2022-08-24T00:54:45.940Z,456
2022-08-24T00:54:50.401Z,455
2022-08-24T00:55:00.413Z,454
2022-08-24T00:55:10.422Z,454
2022-08-24T00:55:20.433Z,454
2022-08-24T00:55:30.472Z,455
2022-08-24T00:55:40.467Z,455
2022-08-24T00:55:50.469Z,456
2022-08-24T00:56:00.485Z,454
2022-08-24T00:56:10.501Z,453
2022-08-24T00:56:20.520Z,454
2022-08-24T00:56:30.518Z,454
2022-08-24T00:56:40.630Z,454
2022-08-24T00:56:50.556Z,453
2022-08-24T00:57:00.556Z,454
2022-08-24T00:57:10.582Z,455
2022-08-24T00:57:20.575Z,454
2022-08-24T00:57:30.606Z,456
2022-08-24T00:57:40.614Z,455
2022-08-24T00:57:50.617Z,454
2022-08-24T00:58:00.645Z,453
2022-08-24T00:58:11.189Z,452
2022-08-24T00:58:20.685Z,451
2022-08-24T00:58:30.669Z,451
2022-08-24T00:58:40.678Z,450
2022-08-24T00:58:56.932Z,449
2022-08-24T00:59:00.684Z,450
2022-08-24T00:59:10.717Z,451
2022-08-24T00:59:20.731Z,454
2022-08-24T00:59:30.728Z,453
2022-08-24T00:59:40.739Z,453
2022-08-24T00:59:50.754Z,452
2022-08-24T01:00:00.766Z,455
2022-08-24T01:00:10.785Z,455
2022-08-24T01:00:20.787Z,455
2022-08-24T01:00:30.887Z,452
2022-08-24T01:00:40.867Z,452
2022-08-24T01:00:50.921Z,450
2022-08-24T01:01:00.898Z,450
2022-08-24T01:01:10.905Z,452
2022-08-24T01:01:20.934Z,451
2022-08-24T01:01:31.031Z,450
2022-08-24T01:01:41.093Z,452
2022-08-24T01:01:50.960Z,452
2022-08-24T01:02:01.256Z,451
2022-08-24T01:02:15.535Z,453
2022-08-24T01:02:21.020Z,454
2022-08-24T01:02:30.968Z,456
2022-08-24T01:02:41.028Z,458
2022-08-24T01:02:50.973Z,458
2022-08-24T01:03:00.980Z,452
2022-08-24T01:03:10.989Z,452
2022-08-24T01:03:21.004Z,452
2022-08-24T01:03:31.015Z,452
2022-08-24T01:03:41.021Z,450
2022-08-24T01:03:56.162Z,456
2022-08-24T01:04:01.057Z,462
2022-08-24T01:04:11.060Z,453
2022-08-24T01:04:21.083Z,454
2022-08-24T01:04:31.091Z,454
2022-08-24T01:04:41.090Z,457
2022-08-24T01:04:51.102Z,458
2022-08-24T01:05:01.118Z,458
2022-08-24T01:05:11.132Z,456
2022-08-24T01:05:21.238Z,458
2022-08-24T01:05:31.157Z,456
2022-08-24T01:05:41.163Z,457
2022-08-24T01:05:51.183Z,455
2022-08-24T01:06:01.190Z,454
2022-08-24T01:06:11.203Z,452
2022-08-24T01:06:21.261Z,450
2022-08-24T01:06:31.227Z,451
2022-08-24T01:06:41.242Z,450
2022-08-24T01:06:51.251Z,451
2022-08-24T01:07:01.266Z,451
2022-08-24T01:07:11.322Z,454
2022-08-24T01:07:21.351Z,455
2022-08-24T01:07:31.317Z,454
2022-08-24T01:07:41.317Z,455
2022-08-24T01:07:51.343Z,454
2022-08-24T01:08:01.467Z,454
2022-08-24T01:08:11.359Z,454
2022-08-24T01:08:21.402Z,453
2022-08-24T01:08:31.379Z,452
2022-08-24T01:08:41.395Z,453
2022-08-24T01:08:56.417Z,453
2022-08-24T01:09:01.409Z,454
2022-08-24T01:09:11.423Z,455
2022-08-24T01:09:21.458Z,456
2022-08-24T01:09:31.454Z,455
2022-08-24T01:09:41.459Z,455
2022-08-24T01:09:51.478Z,455
2022-08-24T01:10:01.495Z,453
2022-08-24T01:10:11.529Z,454
2022-08-24T01:10:21.510Z,453
2022-08-24T01:10:31.529Z,455
2022-08-24T01:10:41.536Z,457
2022-08-24T01:10:51.580Z,460
2022-08-24T01:11:01.578Z,461
2022-08-24T01:11:11.572Z,461
2022-08-24T01:11:21.608Z,463
2022-08-24T01:11:33.980Z,463
2022-08-24T01:11:41.614Z,464
2022-08-24T01:11:51.625Z,465
2022-08-24T01:12:01.643Z,465
2022-08-24T01:12:11.644Z,466
2022-08-24T01:12:21.674Z,462
2022-08-24T01:12:31.671Z,462
2022-08-24T01:12:41.759Z,461
2022-08-24T01:13:00.673Z,463
2022-08-24T01:13:01.728Z,465
2022-08-24T01:13:11.727Z,466
2022-08-24T01:13:21.752Z,464
2022-08-24T01:13:31.831Z,463
2022-08-24T01:13:41.764Z,463
2022-08-24T01:13:51.782Z,464
2022-08-24T01:14:01.785Z,463
2022-08-24T01:14:11.876Z,461
2022-08-24T01:14:21.826Z,460
2022-08-24T01:14:31.829Z,460
2022-08-24T01:14:41.841Z,460
2022-08-24T01:14:51.855Z,460
2022-08-24T01:15:01.865Z,458
2022-08-24T01:15:11.988Z,459
2022-08-24T01:15:21.887Z,458
2022-08-24T01:15:31.902Z,458
2022-08-24T01:15:41.912Z,457
2022-08-24T01:15:51.958Z,455
2022-08-24T01:16:02.037Z,456
2022-08-24T01:16:11.990Z,455
2022-08-24T01:16:22.098Z,454
2022-08-24T01:16:32.091Z,454
2022-08-24T01:16:42.027Z,457
2022-08-24T01:16:52.001Z,457
2022-08-24T01:17:02.010Z,459
2022-08-24T01:17:12.031Z,456
2022-08-24T01:17:22.034Z,458
2022-08-24T01:17:35.097Z,456
2022-08-24T01:17:42.055Z,453
2022-08-24T01:17:52.072Z,455
2022-08-24T01:18:02.240Z,455
2022-08-24T01:18:12.094Z,453
2022-08-24T01:18:22.116Z,451
2022-08-24T01:18:32.119Z,453
2022-08-24T01:18:42.126Z,454
2022-08-24T01:18:52.158Z,453
2022-08-24T01:19:02.155Z,455
2022-08-24T01:19:12.168Z,456
2022-08-24T01:19:22.194Z,456
2022-08-24T01:19:32.188Z,458
2022-08-24T01:19:42.254Z,459
2022-08-24T01:19:52.255Z,459
2022-08-24T01:20:02.228Z,461
2022-08-24T01:20:12.324Z,463
2022-08-24T01:20:22.269Z,463
2022-08-24T01:20:32.268Z,463
2022-08-24T01:20:42.279Z,461
2022-08-24T01:20:52.299Z,461
2022-08-24T01:21:02.293Z,464
2022-08-24T01:21:12.330Z,463
2022-08-24T01:21:22.330Z,463
2022-08-24T01:21:32.335Z,463
2022-08-24T01:21:42.363Z,461
2022-08-24T01:21:52.363Z,462
2022-08-24T01:22:02.373Z,461
2022-08-24T01:22:12.400Z,462
2022-08-24T01:22:22.398Z,463
2022-08-24T01:22:32.417Z,463
2022-08-24T01:22:42.423Z,463
2022-08-24T01:22:52.456Z,462
2022-08-24T01:23:02.449Z,461
2022-08-24T01:23:12.459Z,461
2022-08-24T01:23:22.473Z,460
2022-08-24T01:23:36.501Z,458
2022-08-24T01:23:42.494Z,458
2022-08-24T01:23:52.502Z,459
2022-08-24T01:24:12.533Z,459
2022-08-24T01:24:22.587Z,461
2022-08-24T01:24:32.561Z,462
2022-08-24T01:24:42.566Z,464
2022-08-24T01:24:52.585Z,464
2022-08-24T01:25:02.599Z,463
2022-08-24T01:25:12.603Z,466
2022-08-24T01:25:22.614Z,466
2022-08-24T01:25:32.631Z,461
2022-08-24T01:25:42.646Z,461
2022-08-24T01:25:52.666Z,463
2022-08-24T01:26:02.672Z,461
2022-08-24T01:26:13.472Z,462
2022-08-24T01:26:22.694Z,462
2022-08-24T01:26:32.726Z,465
2022-08-24T01:26:42.716Z,465
2022-08-24T01:26:52.732Z,464
2022-08-24T01:27:02.740Z,464
2022-08-24T01:27:12.757Z,460
2022-08-24T01:27:26.373Z,460
2022-08-24T01:27:32.771Z,462
2022-08-24T01:27:42.786Z,461
2022-08-24T01:27:52.872Z,462
2022-08-24T01:28:04.339Z,462
2022-08-24T01:28:12.826Z,462
2022-08-24T01:28:32.854Z,460
2022-08-24T01:28:42.861Z,459
2022-08-24T01:28:52.871Z,459
2022-08-24T01:29:02.881Z,460
2022-08-24T01:29:12.901Z,460
2022-08-24T01:29:23.755Z,458
2022-08-24T01:29:32.920Z,459
2022-08-24T01:29:42.937Z,459
2022-08-24T01:29:52.940Z,459
2022-08-24T01:30:02.960Z,460
2022-08-24T01:30:13.017Z,461
2022-08-24T01:30:30.720Z,462
2022-08-24T01:30:36.477Z,461
2022-08-24T01:30:43.005Z,461
2022-08-24T01:30:53.019Z,462
2022-08-24T01:31:03.059Z,462
2022-08-24T01:31:13.079Z,461
2022-08-24T01:31:23.197Z,461
2022-08-24T01:31:33.092Z,460
2022-08-24T01:31:43.108Z,461
2022-08-24T01:31:53.187Z,459
2022-08-24T01:32:03.102Z,459
2022-08-24T01:32:13.122Z,459
2022-08-24T01:32:23.129Z,458
2022-08-24T01:32:33.137Z,457
2022-08-24T01:32:43.154Z,457
2022-08-24T01:32:53.165Z,458
2022-08-24T01:33:03.188Z,458
2022-08-24T01:33:13.182Z,459
2022-08-24T01:33:23.201Z,460
2022-08-24T01:33:33.218Z,460
2022-08-24T01:33:43.229Z,461
2022-08-24T01:33:53.254Z,461
2022-08-24T01:34:03.255Z,460
2022-08-24T01:34:13.265Z,460
2022-08-24T01:34:23.276Z,461
2022-08-24T01:34:33.303Z,461
2022-08-24T01:34:43.298Z,460
2022-08-24T01:34:53.314Z,461
2022-08-24T01:35:03.319Z,462
2022-08-24T01:35:13.341Z,462
2022-08-24T01:35:23.352Z,463
2022-08-24T01:35:33.362Z,463
2022-08-24T01:35:43.388Z,462
2022-08-24T01:35:53.385Z,462
2022-08-24T01:36:03.400Z,463
2022-08-24T01:36:13.410Z,462
2022-08-24T01:36:28.220Z,462
2022-08-24T01:36:33.625Z,460
2022-08-24T01:36:43.480Z,461
2022-08-24T01:36:53.463Z,461
2022-08-24T01:37:03.517Z,460
2022-08-24T01:37:23.499Z,459
2022-08-24T01:37:33.515Z,460
2022-08-24T01:37:43.538Z,459
2022-08-24T01:37:53.530Z,459
2022-08-24T01:38:03.765Z,460
2022-08-24T01:38:13.571Z,459
2022-08-24T01:38:23.581Z,459
2022-08-24T01:38:33.586Z,459
2022-08-24T01:38:43.675Z,460
2022-08-24T01:38:53.608Z,460
2022-08-24T01:39:03.627Z,457
2022-08-24T01:39:13.658Z,458
2022-08-24T01:39:23.657Z,457
2022-08-24T01:39:33.754Z,456
2022-08-24T01:39:43.730Z,456
2022-08-24T01:39:53.763Z,454
2022-08-24T01:40:03.748Z,455
2022-08-24T01:40:13.835Z,456
2022-08-24T01:40:23.747Z,456
2022-08-24T01:40:33.725Z,456
2022-08-24T01:40:43.739Z,454
2022-08-24T01:40:53.751Z,455
2022-08-24T01:41:03.764Z,454
2022-08-24T01:41:13.802Z,455
2022-08-24T01:41:26.980Z,453
2022-08-24T01:41:33.861Z,455
2022-08-24T01:41:43.899Z,457
2022-08-24T01:41:53.826Z,457
2022-08-24T01:42:03.841Z,457
2022-08-24T01:42:13.854Z,457
2022-08-24T01:42:23.856Z,458
2022-08-24T01:42:33.884Z,458
2022-08-24T01:42:43.884Z,456
2022-08-24T01:42:53.900Z,458
2022-08-24T01:43:03.917Z,459
2022-08-24T01:43:13.919Z,459
2022-08-24T01:43:23.940Z,459
2022-08-24T01:43:36.943Z,459
2022-08-24T01:43:43.961Z,460
2022-08-24T01:43:54.057Z,459
2022-08-24T01:44:03.986Z,459
2022-08-24T01:44:13.995Z,460
2022-08-24T01:44:24.026Z,462
2022-08-24T01:44:34.021Z,459
2022-08-24T01:44:44.033Z,462
2022-08-24T01:44:54.049Z,460
2022-08-24T01:45:04.073Z,459
2022-08-24T01:45:14.074Z,458
2022-08-24T01:45:24.086Z,460
2022-08-24T01:45:34.112Z,458
2022-08-24T01:45:44.104Z,458
2022-08-24T01:45:54.115Z,459
2022-08-24T01:46:04.221Z,457
2022-08-24T01:46:14.296Z,457
2022-08-24T01:46:24.200Z,457
2022-08-24T01:46:34.206Z,458
2022-08-24T01:46:44.240Z,457
2022-08-24T01:46:54.251Z,457
2022-08-24T01:47:06.582Z,457
2022-08-24T01:47:14.218Z,456
2022-08-24T01:47:24.227Z,457
2022-08-24T01:47:34.244Z,457
2022-08-24T01:47:44.260Z,457
2022-08-24T01:47:54.267Z,458
2022-08-24T01:48:04.518Z,459
2022-08-24T01:48:14.294Z,459
2022-08-24T01:48:44.331Z,457
2022-08-24T01:48:54.337Z,459
2022-08-24T01:49:04.478Z,460
2022-08-24T01:49:14.366Z,459
2022-08-24T01:49:24.401Z,461
2022-08-24T01:49:34.389Z,459
2022-08-24T01:49:44.408Z,460
2022-08-24T01:49:54.405Z,460
2022-08-24T01:50:04.496Z,461
2022-08-24T01:50:14.428Z,460
2022-08-24T01:50:24.446Z,462
2022-08-24T01:50:34.452Z,461
2022-08-24T01:50:44.475Z,460
2022-08-24T01:50:54.481Z,460
2022-08-24T01:51:04.611Z,460
2022-08-24T01:51:14.505Z,460
2022-08-24T01:51:24.821Z,458
2022-08-24T01:51:34.534Z,459
2022-08-24T01:51:44.556Z,459
2022-08-24T01:51:54.563Z,458
2022-08-24T01:52:04.964Z,459
2022-08-24T01:52:14.586Z,458
2022-08-24T01:52:24.594Z,458
2022-08-24T01:53:01.608Z,458
2022-08-24T01:53:04.316Z,459
2022-08-24T01:53:14.494Z,459
2022-08-24T01:53:14.546Z,461
2022-08-24T01:53:14.818Z,460
2022-08-24T01:53:24.664Z,460
2022-08-24T01:53:34.680Z,460
2022-08-24T01:53:44.692Z,461
2022-08-24T01:53:54.778Z,461
2022-08-24T01:54:04.873Z,461
2022-08-24T01:54:14.732Z,461
2022-08-24T01:54:24.752Z,460
2022-08-24T01:54:34.767Z,461
2022-08-24T01:54:44.768Z,465
2022-08-24T01:54:54.786Z,464
2022-08-24T01:55:04.883Z,464
2022-08-24T01:55:14.805Z,464
2022-08-24T01:55:24.821Z,466
2022-08-24T01:55:34.826Z,464
2022-08-24T01:55:44.849Z,462
2022-08-24T01:55:54.852Z,463
2022-08-24T01:56:04.941Z,463
2022-08-24T01:56:14.875Z,460
2022-08-24T01:56:24.888Z,460
2022-08-24T01:56:34.896Z,459
2022-08-24T01:56:44.913Z,457
2022-08-24T01:56:54.929Z,458
2022-08-24T01:57:04.955Z,459
2022-08-24T01:57:16.425Z,457
2022-08-24T01:57:24.956Z,457
2022-08-24T01:57:34.989Z,457
2022-08-24T01:57:44.981Z,456
2022-08-24T01:57:54.997Z,458
2022-08-24T01:58:04.999Z,457
2022-08-24T01:58:15.046Z,457
2022-08-24T01:58:25.030Z,457
2022-08-24T01:58:35.050Z,457
2022-08-24T01:58:45.055Z,459
2022-08-24T01:58:55.078Z,458
2022-08-24T01:59:05.079Z,459
2022-08-24T01:59:15.094Z,459
2022-08-24T01:59:25.124Z,460
2022-08-24T01:59:35.116Z,460
2022-08-24T01:59:45.127Z,461
2022-08-24T01:59:55.145Z,459
2022-08-24T02:00:05.154Z,460
2022-08-24T02:00:15.166Z,460
2022-08-24T02:00:25.193Z,461
2022-08-24T02:00:35.211Z,460
2022-08-24T02:00:45.205Z,460
2022-08-24T02:00:55.220Z,460
2022-08-24T02:01:05.229Z,459
2022-08-24T02:01:15.241Z,459
2022-08-24T02:01:25.336Z,459
2022-08-24T02:01:35.374Z,459
2022-08-24T02:01:45.313Z,459
2022-08-24T02:01:55.380Z,458
2022-08-24T02:02:05.409Z,460
2022-08-24T02:02:15.415Z,460
2022-08-24T02:02:25.386Z,459
2022-08-24T02:02:35.403Z,462
2022-08-24T02:02:45.411Z,461
2022-08-24T02:02:55.417Z,461
2022-08-24T02:03:05.597Z,460
2022-08-24T02:03:15.465Z,461
2022-08-24T02:03:30.244Z,462
2022-08-24T02:03:35.447Z,460
2022-08-24T02:03:45.426Z,461
2022-08-24T02:03:55.428Z,462
2022-08-24T02:04:05.441Z,460
2022-08-24T02:04:17.710Z,461
2022-08-24T02:04:25.469Z,461
2022-08-24T02:04:35.554Z,462
2022-08-24T02:04:45.497Z,462
2022-08-24T02:04:55.502Z,462
2022-08-24T02:05:05.511Z,461
2022-08-24T02:05:15.532Z,461
2022-08-24T02:05:25.538Z,460
2022-08-24T02:05:35.553Z,461
2022-08-24T02:05:45.571Z,461
2022-08-24T02:05:55.580Z,462
2022-08-24T02:06:05.592Z,463
2022-08-24T02:06:15.606Z,463
2022-08-24T02:06:25.628Z,462
2022-08-24T02:06:35.627Z,462
2022-08-24T02:06:45.640Z,464
2022-08-24T02:06:55.687Z,464
2022-08-24T02:07:05.680Z,464
2022-08-24T02:07:15.684Z,465
2022-08-24T02:07:25.694Z,466
2022-08-24T02:07:35.700Z,465
2022-08-24T02:07:45.721Z,467
2022-08-24T02:07:55.730Z,467
2022-08-24T02:08:05.741Z,467
2022-08-24T02:08:15.751Z,467
2022-08-24T02:08:25.766Z,468
2022-08-24T02:08:35.787Z,468
2022-08-24T02:08:45.789Z,468
2022-08-24T02:08:55.808Z,468
2022-08-24T02:09:05.816Z,466
2022-08-24T02:09:15.831Z,466
2022-08-24T02:09:25.842Z,464
2022-08-24T02:09:35.846Z,464
2022-08-24T02:09:45.864Z,463
2022-08-24T02:09:55.871Z,464
2022-08-24T02:10:05.883Z,464
2022-08-24T02:10:15.895Z,463
2022-08-24T02:10:25.907Z,464
2022-08-24T02:10:35.921Z,464
2022-08-24T02:10:52.917Z,466
2022-08-24T02:10:56.787Z,466
2022-08-24T02:11:06.022Z,464
2022-08-24T02:11:15.975Z,463
2022-08-24T02:11:26.001Z,463
2022-08-24T02:11:35.998Z,464
2022-08-24T02:11:46.009Z,464
2022-08-24T02:11:56.034Z,464
2022-08-24T02:12:06.032Z,464
2022-08-24T02:12:16.056Z,465
2022-08-24T02:12:26.115Z,465
2022-08-24T02:12:36.074Z,465
2022-08-24T02:12:46.148Z,465
2022-08-24T02:12:56.100Z,465
2022-08-24T02:13:16.122Z,464
2022-08-24T02:13:26.143Z,466
2022-08-24T02:13:36.145Z,466
2022-08-24T02:13:46.169Z,464
2022-08-24T02:13:56.176Z,464
2022-08-24T02:14:06.184Z,464
2022-08-24T02:14:16.198Z,463
2022-08-24T02:14:26.220Z,463
2022-08-24T02:14:36.229Z,463
2022-08-24T02:14:46.238Z,464
2022-08-24T02:14:56.247Z,463
2022-08-24T02:15:06.254Z,463
2022-08-24T02:15:16.270Z,463
2022-08-24T02:15:26.285Z,462
2022-08-24T02:15:36.336Z,460
2022-08-24T02:15:46.357Z,460
2022-08-24T02:15:56.380Z,460
2022-08-24T02:16:06.386Z,461
2022-08-24T02:16:16.418Z,462
2022-08-24T02:16:26.416Z,465
2022-08-24T02:16:36.362Z,463
2022-08-24T02:16:46.394Z,463
2022-08-24T02:16:56.388Z,460
2022-08-24T02:17:06.393Z,460
2022-08-24T02:17:16.410Z,460
2022-08-24T02:17:26.529Z,459
2022-08-24T02:17:36.440Z,459
2022-08-24T02:17:46.454Z,458
2022-08-24T02:17:56.470Z,456
2022-08-24T02:18:06.473Z,457
2022-08-24T02:18:16.479Z,456
2022-08-24T02:18:26.491Z,454
2022-08-24T02:18:36.504Z,456
2022-08-24T02:18:46.519Z,457
2022-08-24T02:18:56.636Z,457
2022-08-24T02:19:06.539Z,459